sensor_id;sensor_type;location;lat;lon;timestamp;pressure;altitude;pressure_sealevel;temperature;humidity
6859;BME280;3468;42.824;23.240;2024-02-21T00:01:28;68022.56;;;5.58;100.00
6859;BME280;3468;42.824;23.240;2024-02-21T00:03:54;68008.63;;;5.59;100.00
6859;BME280;3468;42.824;23.240;2024-02-21T00:06:21;67922.31;;;5.56;100.00
6859;BME280;3468;42.824;23.240;2024-02-21T00:08:48;67980.88;;;5.54;100.00
6859;BME280;3468;42.824;23.240;2024-02-21T00:11:15;67959.53;;;5.14;100.00
6859;BME280;3468;42.824;23.240;2024-02-21T00:13:43;67629.25;;;4.56;100.00
6859;BME280;3468;42.824;23.240;2024-02-21T00:16:09;67997.75;;;5.32;100.00
6859;BME280;3468;42.824;23.240;2024-02-21T00:18:37;67959.63;;;5.08;100.00
6859;BME280;3468;42.824;23.240;2024-02-21T00:21:04;67885.78;;;4.72;100.00
6859;BME280;3468;42.824;23.240;2024-02-21T00:23:30;67981.53;;;5.31;100.00
6859;BME280;3468;42.824;23.240;2024-02-21T00:25:57;67995.31;;;5.26;100.00
6859;BME280;3468;42.824;23.240;2024-02-21T00:28:24;67979.47;;;5.27;100.00
6859;BME280;3468;42.824;23.240;2024-02-21T00:30:52;67974.09;;;5.25;100.00
6859;BME280;3468;42.824;23.240;2024-02-21T00:33:20;67949.00;;;5.25;100.00
6859;BME280;3468;42.824;23.240;2024-02-21T00:35:47;67990.09;;;5.28;100.00
6859;BME280;3468;42.824;23.240;2024-02-21T00:38:13;67948.41;;;5.24;100.00
6859;BME280;3468;42.824;23.240;2024-02-21T00:40:40;67951.72;;;5.23;100.00
6859;BME280;3468;42.824;23.240;2024-02-21T00:43:07;67941.63;;;5.12;100.00
6859;BME280;3468;42.824;23.240;2024-02-21T00:45:34;67988.59;;;5.07;100.00
6859;BME280;3468;42.824;23.240;2024-02-21T00:48:03;67785.81;;;4.18;100.00
6859;BME280;3468;42.824;23.240;2024-02-21T00:50:30;67902.09;;;4.78;100.00
6859;BME280;3468;42.824;23.240;2024-02-21T00:52:56;67917.19;;;5.06;100.00
6859;BME280;3468;42.824;23.240;2024-02-21T00:55:23;67953.19;;;4.98;100.00
6859;BME280;3468;42.824;23.240;2024-02-21T00:57:50;67944.72;;;5.12;100.00
6859;BME280;3468;42.824;23.240;2024-02-21T01:00:17;67888.44;;;4.59;100.00
6859;BME280;3468;42.824;23.240;2024-02-21T01:02:44;67923.19;;;5.20;100.00
6859;BME280;3468;42.824;23.240;2024-02-21T01:05:12;68200.34;;;4.26;100.00
6859;BME280;3468;42.824;23.240;2024-02-21T01:07:39;67928.31;;;4.96;100.00
6859;BME280;3468;42.824;23.240;2024-02-21T01:10:07;67950.09;;;5.15;100.00
6859;BME280;3468;42.824;23.240;2024-02-21T01:12:34;67951.22;;;5.16;100.00
6859;BME280;3468;42.824;23.240;2024-02-21T01:15:00;67920.50;;;4.87;100.00
6859;BME280;3468;42.824;23.240;2024-02-21T01:17:27;67932.03;;;5.08;100.00
6859;BME280;3468;42.824;23.240;2024-02-21T01:19:54;67980.50;;;5.06;100.00
6859;BME280;3468;42.824;23.240;2024-02-21T01:22:22;67935.72;;;4.74;100.00
6859;BME280;3468;42.824;23.240;2024-02-21T01:24:48;67933.63;;;5.05;100.00
6859;BME280;3468;42.824;23.240;2024-02-21T01:27:15;67978.22;;;5.04;100.00
6859;BME280;3468;42.824;23.240;2024-02-21T01:29:42;67938.41;;;5.07;100.00
6859;BME280;3468;42.824;23.240;2024-02-21T01:32:08;67962.16;;;5.08;100.00
6859;BME280;3468;42.824;23.240;2024-02-21T01:34:35;67952.69;;;5.08;100.00
6859;BME280;3468;42.824;23.240;2024-02-21T01:37:03;67945.72;;;5.09;100.00
6859;BME280;3468;42.824;23.240;2024-02-21T01:39:33;67889.84;;;4.87;100.00
6859;BME280;3468;42.824;23.240;2024-02-21T01:42:00;67860.50;;;4.40;100.00
6859;BME280;3468;42.824;23.240;2024-02-21T01:44:27;67972.34;;;4.95;100.00
6859;BME280;3468;42.824;23.240;2024-02-21T01:46:54;67939.94;;;4.93;100.00
6859;BME280;3468;42.824;23.240;2024-02-21T01:49:21;67933.94;;;4.79;100.00
6859;BME280;3468;42.824;23.240;2024-02-21T01:51:48;67861.16;;;3.99;100.00
6859;BME280;3468;42.824;23.240;2024-02-21T01:54:17;67958.34;;;4.85;100.00
6859;BME280;3468;42.824;23.240;2024-02-21T01:56:47;67970.09;;;4.87;100.00
6859;BME280;3468;42.824;23.240;2024-02-21T01:59:15;67921.94;;;4.80;100.00
6859;BME280;3468;42.824;23.240;2024-02-21T02:01:43;67910.00;;;4.63;100.00
6859;BME280;3468;42.824;23.240;2024-02-21T02:04:11;67920.81;;;4.61;100.00
6859;BME280;3468;42.824;23.240;2024-02-21T02:06:39;67908.56;;;4.70;100.00
6859;BME280;3468;42.824;23.240;2024-02-21T02:09:06;67928.97;;;4.73;100.00
6859;BME280;3468;42.824;23.240;2024-02-21T02:11:33;67924.75;;;4.71;100.00
6859;BME280;3468;42.824;23.240;2024-02-21T02:14:01;67939.22;;;4.71;100.00
6859;BME280;3468;42.824;23.240;2024-02-21T02:16:28;67914.38;;;4.69;100.00
6859;BME280;3468;42.824;23.240;2024-02-21T02:18:55;67917.22;;;4.71;100.00
6859;BME280;3468;42.824;23.240;2024-02-21T02:21:25;67919.53;;;4.73;100.00
6859;BME280;3468;42.824;23.240;2024-02-21T02:23:55;67913.94;;;4.73;100.00
6859;BME280;3468;42.824;23.240;2024-02-21T02:26:22;67838.34;;;4.08;100.00
6859;BME280;3468;42.824;23.240;2024-02-21T02:28:48;67788.81;;;4.53;100.00
6859;BME280;3468;42.824;23.240;2024-02-21T02:31:15;67910.50;;;4.52;100.00
6859;BME280;3468;42.824;23.240;2024-02-21T02:33:42;67910.34;;;4.48;100.00
6859;BME280;3468;42.824;23.240;2024-02-21T02:36:09;67887.06;;;4.43;100.00
6859;BME280;3468;42.824;23.240;2024-02-21T02:38:36;67843.22;;;4.03;100.00
6859;BME280;3468;42.824;23.240;2024-02-21T02:41:05;67865.22;;;4.48;100.00
6859;BME280;3468;42.824;23.240;2024-02-21T02:43:31;67898.19;;;4.51;100.00
6859;BME280;3468;42.824;23.240;2024-02-21T02:45:58;67894.91;;;4.52;100.00
6859;BME280;3468;42.824;23.240;2024-02-21T02:48:25;67897.03;;;4.50;100.00
6859;BME280;3468;42.824;23.240;2024-02-21T02:50:51;67876.41;;;4.49;100.00
6859;BME280;3468;42.824;23.240;2024-02-21T02:53:18;67888.16;;;4.51;100.00
6859;BME280;3468;42.824;23.240;2024-02-21T02:55:45;67882.94;;;4.52;100.00
6859;BME280;3468;42.824;23.240;2024-02-21T02:58:13;67902.34;;;4.41;100.00
6859;BME280;3468;42.824;23.240;2024-02-21T03:00:39;67930.28;;;4.61;100.00
6859;BME280;3468;42.824;23.240;2024-02-21T03:03:07;67915.38;;;4.65;100.00
6859;BME280;3468;42.824;23.240;2024-02-21T03:05:34;67945.59;;;4.70;100.00
6859;BME280;3468;42.824;23.240;2024-02-21T03:08:00;67884.28;;;4.51;100.00
6859;BME280;3468;42.824;23.240;2024-02-21T03:10:28;67948.59;;;4.77;100.00
6859;BME280;3468;42.824;23.240;2024-02-21T03:12:54;67966.66;;;3.43;100.00
6859;BME280;3468;42.824;23.240;2024-02-21T03:15:22;67927.13;;;4.84;100.00
6859;BME280;3468;42.824;23.240;2024-02-21T03:17:49;67924.81;;;4.82;100.00
6859;BME280;3468;42.824;23.240;2024-02-21T03:20:16;67902.91;;;4.76;100.00
6859;BME280;3468;42.824;23.240;2024-02-21T03:22:45;67902.03;;;4.67;100.00
6859;BME280;3468;42.824;23.240;2024-02-21T03:25:11;68139.56;;;4.08;100.00
6859;BME280;3468;42.824;23.240;2024-02-21T03:27:40;67907.16;;;4.60;100.00
6859;BME280;3468;42.824;23.240;2024-02-21T03:30:07;67917.75;;;4.61;100.00
6859;BME280;3468;42.824;23.240;2024-02-21T03:32:35;67737.41;;;3.40;100.00
6859;BME280;3468;42.824;23.240;2024-02-21T03:35:04;67900.97;;;4.59;100.00
6859;BME280;3468;42.824;23.240;2024-02-21T03:37:31;67675.63;;;4.01;100.00
6859;BME280;3468;42.824;23.240;2024-02-21T03:39:58;67897.91;;;4.59;100.00
6859;BME280;3468;42.824;23.240;2024-02-21T03:42:24;67855.50;;;4.57;100.00
6859;BME280;3468;42.824;23.240;2024-02-21T03:44:51;67935.28;;;4.61;100.00
6859;BME280;3468;42.824;23.240;2024-02-21T03:47:18;67916.88;;;4.51;100.00
6859;BME280;3468;42.824;23.240;2024-02-21T03:49:46;67890.31;;;4.65;100.00
6859;BME280;3468;42.824;23.240;2024-02-21T03:52:13;67895.59;;;2.76;100.00
6859;BME280;3468;42.824;23.240;2024-02-21T03:54:39;67920.41;;;4.65;100.00
6859;BME280;3468;42.824;23.240;2024-02-21T03:57:06;67868.09;;;4.68;100.00
6859;BME280;3468;42.824;23.240;2024-02-21T03:59:33;67865.56;;;4.68;100.00
6859;BME280;3468;42.824;23.240;2024-02-21T04:01:59;67980.16;;;4.69;100.00
6859;BME280;3468;42.824;23.240;2024-02-21T04:04:26;67930.63;;;4.63;100.00
6859;BME280;3468;42.824;23.240;2024-02-21T04:06:54;67950.13;;;4.63;100.00
6859;BME280;3468;42.824;23.240;2024-02-21T04:09:21;67917.59;;;4.39;100.00
6859;BME280;3468;42.824;23.240;2024-02-21T04:11:48;67911.59;;;4.43;100.00
6859;BME280;3468;42.824;23.240;2024-02-21T04:14:15;67916.25;;;4.57;100.00
6859;BME280;3468;42.824;23.240;2024-02-21T04:16:41;67924.69;;;4.60;100.00
6859;BME280;3468;42.824;23.240;2024-02-21T04:19:08;67876.44;;;4.32;100.00
6859;BME280;3468;42.824;23.240;2024-02-21T04:21:35;67884.78;;;4.41;100.00
6859;BME280;3468;42.824;23.240;2024-02-21T04:24:03;67886.31;;;4.62;100.00
6859;BME280;3468;42.824;23.240;2024-02-21T04:26:30;67900.75;;;4.61;100.00
6859;BME280;3468;42.824;23.240;2024-02-21T04:28:57;67847.16;;;4.13;100.00
6859;BME280;3468;42.824;23.240;2024-02-21T04:31:24;67893.44;;;4.59;100.00
6859;BME280;3468;42.824;23.240;2024-02-21T04:33:51;67905.19;;;3.92;100.00
6859;BME280;3468;42.824;23.240;2024-02-21T04:36:18;67932.34;;;4.65;100.00
6859;BME280;3468;42.824;23.240;2024-02-21T04:38:45;67921.41;;;4.62;100.00
6859;BME280;3468;42.824;23.240;2024-02-21T04:41:13;67860.31;;;4.24;100.00
6859;BME280;3468;42.824;23.240;2024-02-21T04:43:40;67925.91;;;4.55;100.00
6859;BME280;3468;42.824;23.240;2024-02-21T04:46:07;67607.56;;;2.23;100.00
6859;BME280;3468;42.824;23.240;2024-02-21T04:48:34;67910.50;;;4.52;100.00
6859;BME280;3468;42.824;23.240;2024-02-21T04:51:00;67892.16;;;4.19;100.00
6859;BME280;3468;42.824;23.240;2024-02-21T04:53:27;67922.69;;;4.50;100.00
6859;BME280;3468;42.824;23.240;2024-02-21T04:55:54;67892.03;;;4.50;100.00
6859;BME280;3468;42.824;23.240;2024-02-21T04:58:22;67902.63;;;4.50;100.00
6859;BME280;3468;42.824;23.240;2024-02-21T05:00:48;67896.81;;;4.51;100.00
6859;BME280;3468;42.824;23.240;2024-02-21T05:03:15;67948.75;;;4.47;100.00
6859;BME280;3468;42.824;23.240;2024-02-21T05:05:42;67926.63;;;4.43;100.00
6859;BME280;3468;42.824;23.240;2024-02-21T05:08:09;68116.00;;;3.51;100.00
6859;BME280;3468;42.824;23.240;2024-02-21T05:10:36;67892.66;;;4.26;100.00
6859;BME280;3468;42.824;23.240;2024-02-21T05:13:03;68140.84;;;3.47;100.00
6859;BME280;3468;42.824;23.240;2024-02-21T05:15:31;67663.91;;;2.91;100.00
6859;BME280;3468;42.824;23.240;2024-02-21T05:17:59;67735.44;;;3.12;100.00
6859;BME280;3468;42.824;23.240;2024-02-21T05:20:25;68132.25;;;3.39;100.00
6859;BME280;3468;42.824;23.240;2024-02-21T05:22:52;67906.28;;;3.11;100.00
6859;BME280;3468;42.824;23.240;2024-02-21T05:25:19;67909.06;;;4.25;100.00
6859;BME280;3468;42.824;23.240;2024-02-21T05:27:45;67791.28;;;3.45;100.00
6859;BME280;3468;42.824;23.240;2024-02-21T05:30:13;67844.84;;;3.76;100.00
6859;BME280;3468;42.824;23.240;2024-02-21T05:32:41;67901.78;;;4.23;100.00
6859;BME280;3468;42.824;23.240;2024-02-21T05:35:08;67958.63;;;4.25;100.00
6859;BME280;3468;42.824;23.240;2024-02-21T05:37:34;67866.09;;;4.23;100.00
6859;BME280;3468;42.824;23.240;2024-02-21T05:40:01;67876.28;;;4.10;100.00
6859;BME280;3468;42.824;23.240;2024-02-21T05:42:28;67909.44;;;4.28;100.00
6859;BME280;3468;42.824;23.240;2024-02-21T05:44:54;67927.34;;;4.30;100.00
6859;BME280;3468;42.824;23.240;2024-02-21T05:47:21;67909.72;;;4.37;100.00
6859;BME280;3468;42.824;23.240;2024-02-21T05:49:49;68270.97;;;4.82;100.00
6859;BME280;3468;42.824;23.240;2024-02-21T05:52:18;68012.25;;;5.49;100.00
6859;BME280;3468;42.824;23.240;2024-02-21T05:54:45;68069.59;;;6.44;100.00
6859;BME280;3468;42.824;23.240;2024-02-21T05:57:12;68160.09;;;7.45;100.00
6859;BME280;3468;42.824;23.240;2024-02-21T05:59:38;68245.91;;;8.39;100.00
6859;BME280;3468;42.824;23.240;2024-02-21T06:02:07;68606.16;;;8.62;100.00
6859;BME280;3468;42.824;23.240;2024-02-21T06:04:34;68345.91;;;9.79;100.00
6859;BME280;3468;42.824;23.240;2024-02-21T06:07:02;68463.03;;;10.60;100.00
6859;BME280;3468;42.824;23.240;2024-02-21T06:09:29;68520.53;;;11.42;99.12
6859;BME280;3468;42.824;23.240;2024-02-21T06:11:57;68571.75;;;11.97;94.44
6859;BME280;3468;42.824;23.240;2024-02-21T06:14:24;68590.75;;;12.50;91.52
6859;BME280;3468;42.824;23.240;2024-02-21T06:16:50;68691.66;;;13.15;88.31
6859;BME280;3468;42.824;23.240;2024-02-21T06:19:17;68723.72;;;13.60;86.08
6859;BME280;3468;42.824;23.240;2024-02-21T06:21:44;68778.28;;;14.09;84.35
6859;BME280;3468;42.824;23.240;2024-02-21T06:24:12;68781.47;;;14.40;79.15
6859;BME280;3468;42.824;23.240;2024-02-21T06:26:39;68799.38;;;14.71;77.06
6859;BME280;3468;42.824;23.240;2024-02-21T06:29:06;68827.50;;;14.75;78.19
6859;BME280;3468;42.824;23.240;2024-02-21T06:31:34;68821.00;;;14.35;80.22
6859;BME280;3468;42.824;23.240;2024-02-21T06:34:01;68782.25;;;14.23;80.24
6859;BME280;3468;42.824;23.240;2024-02-21T06:36:28;68797.88;;;14.26;80.51
6859;BME280;3468;42.824;23.240;2024-02-21T06:38:54;68789.09;;;14.25;80.04
6859;BME280;3468;42.824;23.240;2024-02-21T06:41:22;68768.88;;;14.34;79.66
6859;BME280;3468;42.824;23.240;2024-02-21T06:43:49;68833.59;;;14.41;79.66
6859;BME280;3468;42.824;23.240;2024-02-21T06:46:25;68792.41;;;14.34;77.00
6859;BME280;3468;42.824;23.240;2024-02-21T06:48:53;68811.19;;;14.26;78.63
6859;BME280;3468;42.824;23.240;2024-02-21T06:51:21;68567.59;;;13.31;79.54
6859;BME280;3468;42.824;23.240;2024-02-21T06:53:48;68751.59;;;14.19;77.58
6859;BME280;3468;42.824;23.240;2024-02-21T06:56:15;68727.56;;;14.07;77.82
6859;BME280;3468;42.824;23.240;2024-02-21T06:58:43;68649.78;;;13.40;78.91
6859;BME280;3468;42.824;23.240;2024-02-21T07:01:10;68659.66;;;13.53;79.60
6859;BME280;3468;42.824;23.240;2024-02-21T07:03:36;68669.94;;;13.05;80.97
6859;BME280;3468;42.824;23.240;2024-02-21T07:06:04;68626.63;;;12.64;82.30
6859;BME280;3468;42.824;23.240;2024-02-21T07:08:30;68598.94;;;12.14;82.81
6859;BME280;3468;42.824;23.240;2024-02-21T07:10:57;68502.03;;;11.70;83.45
6859;BME280;3468;42.824;23.240;2024-02-21T07:13:24;68480.66;;;11.36;85.17
6859;BME280;3468;42.824;23.240;2024-02-21T07:15:52;68487.94;;;11.34;88.57
6859;BME280;3468;42.824;23.240;2024-02-21T07:18:18;68492.56;;;11.27;87.86
6859;BME280;3468;42.824;23.240;2024-02-21T07:20:45;68549.44;;;11.71;88.80
6859;BME280;3468;42.824;23.240;2024-02-21T07:23:12;68533.22;;;12.27;86.21
6859;BME280;3468;42.824;23.240;2024-02-21T07:25:39;68613.56;;;12.61;83.21
6859;BME280;3468;42.824;23.240;2024-02-21T07:28:06;68669.03;;;13.02;78.02
6859;BME280;3468;42.824;23.240;2024-02-21T07:30:33;68605.34;;;12.72;77.39
6859;BME280;3468;42.824;23.240;2024-02-21T07:33:01;68648.94;;;13.00;78.93
6859;BME280;3468;42.824;23.240;2024-02-21T07:35:29;68709.78;;;13.18;76.92
6859;BME280;3468;42.824;23.240;2024-02-21T07:37:56;68660.72;;;12.97;77.71
6859;BME280;3468;42.824;23.240;2024-02-21T07:40:23;68613.91;;;13.01;76.50
6859;BME280;3468;42.824;23.240;2024-02-21T07:42:49;68645.13;;;12.95;77.86
6859;BME280;3468;42.824;23.240;2024-02-21T07:45:16;68645.75;;;12.84;79.32
6859;BME280;3468;42.824;23.240;2024-02-21T07:47:43;68539.16;;;12.15;77.14
6859;BME280;3468;42.824;23.240;2024-02-21T07:50:11;68597.91;;;12.17;81.50
6859;BME280;3468;42.824;23.240;2024-02-21T07:52:38;68420.09;;;11.76;81.59
6859;BME280;3468;42.824;23.240;2024-02-21T07:55:05;68310.84;;;11.14;84.48
6859;BME280;3468;42.824;23.240;2024-02-21T07:57:32;68566.84;;;11.80;85.36
6859;BME280;3468;42.824;23.240;2024-02-21T07:59:59;68476.06;;;11.32;83.60
6859;BME280;3468;42.824;23.240;2024-02-21T08:02:25;68525.41;;;11.81;88.10
6859;BME280;3468;42.824;23.240;2024-02-21T08:04:52;68486.88;;;11.37;84.56
6859;BME280;3468;42.824;23.240;2024-02-21T08:07:20;68550.03;;;11.50;85.81
6859;BME280;3468;42.824;23.240;2024-02-21T08:09:47;68497.50;;;11.22;89.33
6859;BME280;3468;42.824;23.240;2024-02-21T08:12:14;68478.19;;;11.04;88.50
6859;BME280;3468;42.824;23.240;2024-02-21T08:14:40;68493.91;;;11.37;94.38
6859;BME280;3468;42.824;23.240;2024-02-21T08:17:07;68516.44;;;11.71;94.99
6859;BME280;3468;42.824;23.240;2024-02-21T08:19:34;68590.00;;;11.93;85.78
6859;BME280;3468;42.824;23.240;2024-02-21T08:22:00;68590.41;;;12.11;83.30
6859;BME280;3468;42.824;23.240;2024-02-21T08:24:30;68597.84;;;12.28;80.11
6859;BME280;3468;42.824;23.240;2024-02-21T08:26:56;68609.88;;;12.23;80.08
6859;BME280;3468;42.824;23.240;2024-02-21T08:29:23;68555.53;;;11.79;81.75
6859;BME280;3468;42.824;23.240;2024-02-21T08:31:50;68590.22;;;11.91;82.73
6859;BME280;3468;42.824;23.240;2024-02-21T08:34:16;68585.97;;;11.90;81.08
6859;BME280;3468;42.824;23.240;2024-02-21T08:37:07;68535.41;;;11.51;81.95
6859;BME280;3468;42.824;23.240;2024-02-21T08:39:39;68514.06;;;11.43;87.02
6859;BME280;3468;42.824;23.240;2024-02-21T08:42:06;68442.78;;;11.19;87.29
6859;BME280;3468;42.824;23.240;2024-02-21T08:44:32;68360.72;;;11.53;84.63
6859;BME280;3468;42.824;23.240;2024-02-21T08:46:59;68487.03;;;11.09;82.84
6859;BME280;3468;42.824;23.240;2024-02-21T08:49:29;68474.03;;;11.07;84.68
6859;BME280;3468;42.824;23.240;2024-02-21T08:51:56;68470.13;;;10.86;83.91
6859;BME280;3468;42.824;23.240;2024-02-21T08:54:23;68474.50;;;10.81;85.35
6859;BME280;3468;42.824;23.240;2024-02-21T08:56:51;68420.22;;;10.47;88.07
6859;BME280;3468;42.824;23.240;2024-02-21T08:59:18;68453.88;;;10.89;87.73
6859;BME280;3468;42.824;23.240;2024-02-21T09:01:44;68459.63;;;10.94;83.96
6859;BME280;3468;42.824;23.240;2024-02-21T09:04:11;68412.03;;;10.58;84.44
6859;BME280;3468;42.824;23.240;2024-02-21T09:06:38;68486.22;;;11.00;82.70
6859;BME280;3468;42.824;23.240;2024-02-21T09:09:07;68452.38;;;10.97;85.30
6859;BME280;3468;42.824;23.240;2024-02-21T09:11:35;68469.09;;;10.89;85.56
6859;BME280;3468;42.824;23.240;2024-02-21T09:14:03;67998.81;;;8.59;86.72
6859;BME280;3468;42.824;23.240;2024-02-21T09:16:31;68449.19;;;10.81;84.72
6859;BME280;3468;42.824;23.240;2024-02-21T09:18:58;68466.00;;;10.78;84.80
6859;BME280;3468;42.824;23.240;2024-02-21T09:21:25;68458.16;;;10.80;84.13
6859;BME280;3468;42.824;23.240;2024-02-21T09:24:15;68503.63;;;11.08;82.48
6859;BME280;3468;42.824;23.240;2024-02-21T09:27:06;68547.50;;;11.61;81.87
6859;BME280;3468;42.824;23.240;2024-02-21T09:29:59;68570.81;;;11.94;80.88
6859;BME280;3468;42.824;23.240;2024-02-21T09:32:31;68612.47;;;12.49;80.49
6859;BME280;3468;42.824;23.240;2024-02-21T09:34:58;69019.44;;;12.74;76.86
6859;BME280;3468;42.824;23.240;2024-02-21T09:37:25;68633.66;;;13.00;73.53
6859;BME280;3468;42.824;23.240;2024-02-21T09:39:51;68698.56;;;13.21;72.44
6859;BME280;3468;42.824;23.240;2024-02-21T09:42:20;68710.56;;;13.27;72.36
6859;BME280;3468;42.824;23.240;2024-02-21T09:44:47;68799.69;;;14.16;68.92
6859;BME280;3468;42.824;23.240;2024-02-21T09:47:19;68791.47;;;14.31;69.03
6859;BME280;3468;42.824;23.240;2024-02-21T09:49:46;68859.97;;;14.96;70.18
6859;BME280;3468;42.824;23.240;2024-02-21T09:52:15;68926.28;;;15.49;64.93
6859;BME280;3468;42.824;23.240;2024-02-21T09:54:42;68941.22;;;15.72;65.45
6859;BME280;3468;42.824;23.240;2024-02-21T09:57:10;68986.69;;;15.76;63.77
6859;BME280;3468;42.824;23.240;2024-02-21T09:59:37;68893.97;;;15.36;63.61
6859;BME280;3468;42.824;23.240;2024-02-21T10:02:04;68776.97;;;14.41;66.07
6859;BME280;3468;42.824;23.240;2024-02-21T10:04:33;68776.41;;;14.14;67.18
6859;BME280;3468;42.824;23.240;2024-02-21T10:07:00;68753.59;;;13.81;66.15
6859;BME280;3468;42.824;23.240;2024-02-21T10:09:29;68721.09;;;13.56;67.98
6859;BME280;3468;42.824;23.240;2024-02-21T10:12:07;68594.97;;;12.63;66.47
6859;BME280;3468;42.824;23.240;2024-02-21T10:14:34;68670.56;;;13.21;68.03
6859;BME280;3468;42.824;23.240;2024-02-21T10:17:01;68679.88;;;13.07;68.16
6859;BME280;3468;42.824;23.240;2024-02-21T10:19:28;68640.69;;;12.84;66.35
6859;BME280;3468;42.824;23.240;2024-02-21T10:22:01;68654.72;;;12.57;66.31
6859;BME280;3468;42.824;23.240;2024-02-21T10:24:29;68623.78;;;12.13;68.89
6859;BME280;3468;42.824;23.240;2024-02-21T10:27:01;68662.38;;;12.94;68.45
6859;BME280;3468;42.824;23.240;2024-02-21T10:29:28;68730.09;;;13.65;65.53
6859;BME280;3468;42.824;23.240;2024-02-21T10:32:04;68811.53;;;14.29;64.52
6859;BME280;3468;42.824;23.240;2024-02-21T10:34:31;68846.38;;;14.56;63.14
6859;BME280;3468;42.824;23.240;2024-02-21T10:37:01;68807.53;;;14.41;63.17
6859;BME280;3468;42.824;23.240;2024-02-21T10:39:29;68812.47;;;14.32;64.54
6859;BME280;3468;42.824;23.240;2024-02-21T10:41:59;68831.88;;;14.81;62.69
6859;BME280;3468;42.824;23.240;2024-02-21T10:44:27;68879.47;;;15.20;61.23
6859;BME280;3468;42.824;23.240;2024-02-21T10:46:55;68958.88;;;15.90;62.14
6859;BME280;3468;42.824;23.240;2024-02-21T10:49:23;68950.06;;;15.89;56.46
6859;BME280;3468;42.824;23.240;2024-02-21T10:51:54;68973.28;;;16.02;57.53
6859;BME280;3468;42.824;23.240;2024-02-21T10:54:39;68915.91;;;15.71;55.97
6859;BME280;3468;42.824;23.240;2024-02-21T10:57:08;68870.25;;;15.42;58.76
6859;BME280;3468;42.824;23.240;2024-02-21T10:59:37;68821.09;;;14.65;57.55
6859;BME280;3468;42.824;23.240;2024-02-21T11:02:06;68819.16;;;14.55;58.98
6859;BME280;3468;42.824;23.240;2024-02-21T11:04:32;68772.78;;;14.17;60.25
6859;BME280;3468;42.824;23.240;2024-02-21T11:07:01;68750.94;;;13.88;60.38
6859;BME280;3468;42.824;23.240;2024-02-21T11:09:30;68746.94;;;13.73;63.02
6859;BME280;3468;42.824;23.240;2024-02-21T11:12:01;68689.63;;;13.26;63.14
6859;BME280;3468;42.824;23.240;2024-02-21T11:14:29;68639.63;;;12.88;64.51
6859;BME280;3468;42.824;23.240;2024-02-21T11:16:58;68611.78;;;12.81;64.95
6859;BME280;3468;42.824;23.240;2024-02-21T11:19:26;68667.16;;;12.81;64.89
6859;BME280;3468;42.824;23.240;2024-02-21T11:21:54;68676.56;;;12.98;66.32
6859;BME280;3468;42.824;23.240;2024-02-21T11:24:28;68677.22;;;13.03;66.32
6859;BME280;3468;42.824;23.240;2024-02-21T11:26:55;68682.09;;;13.05;64.95
6859;BME280;3468;42.824;23.240;2024-02-21T11:29:27;68687.06;;;13.00;64.46
6859;BME280;3468;42.824;23.240;2024-02-21T11:31:54;68584.75;;;12.84;65.70
6859;BME280;3468;42.824;23.240;2024-02-21T11:34:21;68638.81;;;12.78;64.43
6859;BME280;3468;42.824;23.240;2024-02-21T11:36:48;68522.66;;;12.62;66.05
6859;BME280;3468;42.824;23.240;2024-02-21T11:39:20;68618.09;;;12.61;65.47
6859;BME280;3468;42.824;23.240;2024-02-21T11:41:47;68625.53;;;12.41;67.95
6859;BME280;3468;42.824;23.240;2024-02-21T11:44:14;68604.53;;;12.36;68.09
6859;BME280;3468;42.824;23.240;2024-02-21T11:46:42;68622.56;;;12.34;67.83
6859;BME280;3468;42.824;23.240;2024-02-21T11:49:10;68598.78;;;12.31;68.06
6859;BME280;3468;42.824;23.240;2024-02-21T11:51:37;68622.56;;;12.23;67.96
6859;BME280;3468;42.824;23.240;2024-02-21T11:54:03;68555.81;;;12.03;67.86
6859;BME280;3468;42.824;23.240;2024-02-21T11:56:32;68541.25;;;12.08;68.09
6859;BME280;3468;42.824;23.240;2024-02-21T11:58:59;68544.88;;;11.94;67.46
6859;BME280;3468;42.824;23.240;2024-02-21T12:01:26;68567.38;;;11.91;68.29
6859;BME280;3468;42.824;23.240;2024-02-21T12:03:54;68572.34;;;11.87;67.55
6859;BME280;3468;42.824;23.240;2024-02-21T12:06:21;68560.13;;;11.83;69.43
6859;BME280;3468;42.824;23.240;2024-02-21T12:08:48;68538.91;;;11.80;68.95
6859;BME280;3468;42.824;23.240;2024-02-21T12:11:21;68448.28;;;11.26;69.09
6859;BME280;3468;42.824;23.240;2024-02-21T12:13:58;68524.88;;;11.70;72.48
6859;BME280;3468;42.824;23.240;2024-02-21T12:16:27;68517.72;;;11.66;72.45
6859;BME280;3468;42.824;23.240;2024-02-21T12:18:55;68499.31;;;11.28;72.41
6859;BME280;3468;42.824;23.240;2024-02-21T12:21:26;68525.84;;;11.51;72.53
6859;BME280;3468;42.824;23.240;2024-02-21T12:23:54;68450.53;;;10.91;72.10
6859;BME280;3468;42.824;23.240;2024-02-21T12:26:20;68534.59;;;11.52;73.09
6859;BME280;3468;42.824;23.240;2024-02-21T12:28:47;68516.59;;;11.54;73.86
6859;BME280;3468;42.824;23.240;2024-02-21T12:31:14;68564.31;;;11.69;75.63
6859;BME280;3468;42.824;23.240;2024-02-21T12:33:42;68559.25;;;11.58;75.09
6859;BME280;3468;42.824;23.240;2024-02-21T12:36:10;68518.56;;;11.54;74.99
6859;BME280;3468;42.824;23.240;2024-02-21T12:38:37;68534.75;;;11.83;74.71
6859;BME280;3468;42.824;23.240;2024-02-21T12:41:03;68583.34;;;12.22;71.84
6859;BME280;3468;42.824;23.240;2024-02-21T12:43:30;68610.25;;;12.52;69.91
6859;BME280;3468;42.824;23.240;2024-02-21T12:45:57;68654.31;;;12.77;70.32
6859;BME280;3468;42.824;23.240;2024-02-21T12:48:24;68692.09;;;13.11;69.87
6859;BME280;3468;42.824;23.240;2024-02-21T12:50:51;68657.84;;;13.21;70.46
6859;BME280;3468;42.824;23.240;2024-02-21T12:53:19;68620.03;;;12.97;71.22
6859;BME280;3468;42.824;23.240;2024-02-21T12:55:48;68665.63;;;12.88;71.06
6859;BME280;3468;42.824;23.240;2024-02-21T12:58:15;68328.28;;;11.80;71.32
6859;BME280;3468;42.824;23.240;2024-02-21T13:00:42;68618.09;;;12.61;70.40
6859;BME280;3468;42.824;23.240;2024-02-21T13:03:10;68602.63;;;12.52;73.52
6859;BME280;3468;42.824;23.240;2024-02-21T13:05:36;68637.81;;;12.60;74.45
6859;BME280;3468;42.824;23.240;2024-02-21T13:08:04;68628.69;;;12.68;72.99
6859;BME280;3468;42.824;23.240;2024-02-21T13:10:32;68628.94;;;12.66;72.50
6859;BME280;3468;42.824;23.240;2024-02-21T13:13:00;68615.50;;;12.72;72.89